sensor_id;sensor_type;location;lat;lon;timestamp;pressure;altitude;pressure_sealevel;temperature
28803;BMP280;15949;55.656;37.422;2023-06-24T00:04:03;98817.63;;;15.81
28803;BMP280;15949;55.656;37.422;2023-06-24T00:09:09;98826.66;;;15.70
28803;BMP280;15949;55.656;37.422;2023-06-24T00:14:14;98819.94;;;15.65
28803;BMP280;15949;55.656;37.422;2023-06-24T00:19:22;98826.72;;;15.55
28803;BMP280;15949;55.656;37.422;2023-06-24T00:24:27;98826.34;;;15.57
28803;BMP280;15949;55.656;37.422;2023-06-24T00:29:33;98825.22;;;15.51
28803;BMP280;15949;55.656;37.422;2023-06-24T00:34:38;98819.25;;;15.47
28803;BMP280;15949;55.656;37.422;2023-06-24T00:39:48;98823.78;;;15.29
28803;BMP280;15949;55.656;37.422;2023-06-24T00:44:54;98814.78;;;15.23
28803;BMP280;15949;55.656;37.422;2023-06-24T00:49:59;98802.44;;;15.16
28803;BMP280;15949;55.656;37.422;2023-06-24T00:55:06;98794.94;;;15.15
28803;BMP280;15949;55.656;37.422;2023-06-24T01:00:12;98797.22;;;15.13
28803;BMP280;15949;55.656;37.422;2023-06-24T01:05:22;98803.59;;;15.12
28803;BMP280;15949;55.656;37.422;2023-06-24T01:10:28;98803.19;;;15.10
28803;BMP280;15949;55.656;37.422;2023-06-24T01:15:35;98804.72;;;15.07
28803;BMP280;15949;55.656;37.422;2023-06-24T01:20:58;98812.56;;;15.14
28803;BMP280;15949;55.656;37.422;2023-06-24T01:31:49;98810.69;;;15.25
28803;BMP280;15949;55.656;37.422;2023-06-24T01:37:08;98805.06;;;15.27
28803;BMP280;15949;55.656;37.422;2023-06-24T01:42:16;98806.94;;;15.26
28803;BMP280;15949;55.656;37.422;2023-06-24T01:47:25;98806.91;;;15.33
28803;BMP280;15949;55.656;37.422;2023-06-24T01:52:32;98800.16;;;15.29
28803;BMP280;15949;55.656;37.422;2023-06-24T01:57:40;98811.03;;;15.24
28803;BMP280;15949;55.656;37.422;2023-06-24T02:02:47;98810.66;;;15.29
28803;BMP280;15949;55.656;37.422;2023-06-24T02:07:53;98808.81;;;15.26
28803;BMP280;15949;55.656;37.422;2023-06-24T02:13:00;98814.06;;;15.26
28803;BMP280;15949;55.656;37.422;2023-06-24T02:18:08;98823.06;;;15.14
28803;BMP280;15949;55.656;37.422;2023-06-24T02:23:14;98823.06;;;15.11
28803;BMP280;15949;55.656;37.422;2023-06-24T02:28:21;98833.19;;;15.09
28803;BMP280;15949;55.656;37.422;2023-06-24T02:33:27;98832.06;;;15.10
28803;BMP280;15949;55.656;37.422;2023-06-24T02:38:33;98834.34;;;14.97
28803;BMP280;15949;55.656;37.422;2023-06-24T02:43:39;98834.69;;;14.99
28803;BMP280;15949;55.656;37.422;2023-06-24T02:48:45;98830.56;;;15.02
28803;BMP280;15949;55.656;37.422;2023-06-24T02:53:51;98834.34;;;14.87
28803;BMP280;15949;55.656;37.422;2023-06-24T02:58:57;98835.09;;;14.91
28803;BMP280;15949;55.656;37.422;2023-06-24T03:04:03;98827.59;;;14.93
28803;BMP280;15949;55.656;37.422;2023-06-24T03:09:09;98836.56;;;14.99
28803;BMP280;15949;55.656;37.422;2023-06-24T03:14:15;98829.47;;;14.89
28803;BMP280;15949;55.656;37.422;2023-06-24T03:19:20;98837.72;;;14.76
28803;BMP280;15949;55.656;37.422;2023-06-24T03:24:26;98827.59;;;14.82
28803;BMP280;15949;55.656;37.422;2023-06-24T03:29:31;98836.59;;;14.77
28803;BMP280;15949;55.656;37.422;2023-06-24T03:34:37;98838.84;;;14.79
28803;BMP280;15949;55.656;37.422;2023-06-24T03:39:42;98827.97;;;14.77
28803;BMP280;15949;55.656;37.422;2023-06-24T03:44:48;98835.81;;;14.80
28803;BMP280;15949;55.656;37.422;2023-06-24T03:49:53;98839.97;;;14.81
28803;BMP280;15949;55.656;37.422;2023-06-24T03:54:59;98839.56;;;14.79
28803;BMP280;15949;55.656;37.422;2023-06-24T04:00:07;98850.03;;;14.65
28803;BMP280;15949;55.656;37.422;2023-06-24T04:05:19;98847.47;;;14.87
28803;BMP280;15949;55.656;37.422;2023-06-24T04:10:25;98844.81;;;14.79
28803;BMP280;15949;55.656;37.422;2023-06-24T04:15:31;98848.59;;;14.82
28803;BMP280;15949;55.656;37.422;2023-06-24T04:20:36;98845.94;;;14.89
28803;BMP280;15949;55.656;37.422;2023-06-24T04:25:42;98859.09;;;15.03
28803;BMP280;15949;55.656;37.422;2023-06-24T04:30:47;98868.84;;;15.17
28803;BMP280;15949;55.656;37.422;2023-06-24T04:35:53;98863.91;;;15.19
28803;BMP280;15949;55.656;37.422;2023-06-24T04:40:59;98878.56;;;15.06
28803;BMP280;15949;55.656;37.422;2023-06-24T04:46:04;98884.59;;;14.96
28803;BMP280;15949;55.656;37.422;2023-06-24T04:51:10;98889.44;;;14.97
28803;BMP280;15949;55.656;37.422;2023-06-24T04:56:16;98885.69;;;14.84
28803;BMP280;15949;55.656;37.422;2023-06-24T05:01:22;98893.19;;;14.82
28803;BMP280;15949;55.656;37.422;2023-06-24T05:06:28;98888.69;;;14.79
28803;BMP280;15949;55.656;37.422;2023-06-24T05:11:33;98892.06;;;15.11
28803;BMP280;15949;55.656;37.422;2023-06-24T05:16:39;98903.72;;;15.17
28803;BMP280;15949;55.656;37.422;2023-06-24T05:21:44;98904.81;;;15.20
28803;BMP280;15949;55.656;37.422;2023-06-24T05:26:51;98904.03;;;15.37
28803;BMP280;15949;55.656;37.422;2023-06-24T05:31:56;98893.53;;;15.51
28803;BMP280;15949;55.656;37.422;2023-06-24T05:37:02;98895.75;;;15.63
28803;BMP280;15949;55.656;37.422;2023-06-24T05:42:08;98902.50;;;15.61
28803;BMP280;15949;55.656;37.422;2023-06-24T05:47:14;98906.28;;;15.56
28803;BMP280;15949;55.656;37.422;2023-06-24T05:52:19;98897.28;;;15.50
28803;BMP280;15949;55.656;37.422;2023-06-24T05:57:25;98913.47;;;15.45
28803;BMP280;15949;55.656;37.422;2023-06-24T06:02:30;98904.41;;;15.42
28803;BMP280;15949;55.656;37.422;2023-06-24T06:07:36;98913.41;;;15.55
28803;BMP280;15949;55.656;37.422;2023-06-24T06:12:44;98900.59;;;15.79
28803;BMP280;15949;55.656;37.422;2023-06-24T06:17:51;98899.84;;;15.82
28803;BMP280;15949;55.656;37.422;2023-06-24T06:22:57;98918.28;;;15.61
28803;BMP280;15949;55.656;37.422;2023-06-24T06:28:04;98917.56;;;15.49
28803;BMP280;15949;55.656;37.422;2023-06-24T06:33:09;98925.81;;;15.55
28803;BMP280;15949;55.656;37.422;2023-06-24T06:38:15;98920.19;;;15.60
28803;BMP280;15949;55.656;37.422;2023-06-24T06:43:20;98926.16;;;15.61
28803;BMP280;15949;55.656;37.422;2023-06-24T06:48:26;98921.31;;;15.52
28803;BMP280;15949;55.656;37.422;2023-06-24T06:53:32;98924.28;;;15.68
28803;BMP280;15949;55.656;37.422;2023-06-24T06:58:38;98928.41;;;15.66
28803;BMP280;15949;55.656;37.422;2023-06-24T07:03:44;98928.06;;;15.46
28803;BMP280;15949;55.656;37.422;2023-06-24T07:08:49;98920.94;;;15.43
28803;BMP280;15949;55.656;37.422;2023-06-24T07:13:55;98929.56;;;15.43
28803;BMP280;15949;55.656;37.422;2023-06-24T07:19:00;98925.06;;;15.47
28803;BMP280;15949;55.656;37.422;2023-06-24T07:24:06;98933.31;;;15.60
28803;BMP280;15949;55.656;37.422;2023-06-24T07:29:12;98941.91;;;15.61
28803;BMP280;15949;55.656;37.422;2023-06-24T07:34:17;98935.56;;;15.51
28803;BMP280;15949;55.656;37.422;2023-06-24T07:39:23;98942.69;;;15.50
28803;BMP280;15949;55.656;37.422;2023-06-24T07:44:28;98952.06;;;15.51
28803;BMP280;15949;55.656;37.422;2023-06-24T07:49:34;98958.84;;;15.52
28803;BMP280;15949;55.656;37.422;2023-06-24T07:54:41;98954.72;;;15.55
28803;BMP280;15949;55.656;37.422;2023-06-24T07:59:46;98961.09;;;15.43
28803;BMP280;15949;55.656;37.422;2023-06-24T08:04:52;98972.75;;;15.49
28803;BMP280;15949;55.656;37.422;2023-06-24T08:09:58;98966.00;;;15.45
28803;BMP280;15949;55.656;37.422;2023-06-24T08:15:03;98968.94;;;15.68
28803;BMP280;15949;55.656;37.422;2023-06-24T08:20:10;98978.69;;;15.82
28803;BMP280;15949;55.656;37.422;2023-06-24T08:25:15;98980.56;;;15.81
28803;BMP280;15949;55.656;37.422;2023-06-24T08:30:21;98988.84;;;15.80
28803;BMP280;15949;55.656;37.422;2023-06-24T08:35:27;98997.09;;;15.71
28803;BMP280;15949;55.656;37.422;2023-06-24T08:40:32;98984.31;;;15.70
28803;BMP280;15949;55.656;37.422;2023-06-24T08:45:39;99001.22;;;15.72
28803;BMP280;15949;55.656;37.422;2023-06-24T08:50:46;99002.00;;;15.62
28803;BMP280;15949;55.656;37.422;2023-06-24T08:55:56;99004.25;;;15.60
28803;BMP280;15949;55.656;37.422;2023-06-24T09:01:03;99015.88;;;15.66
28803;BMP280;15949;55.656;37.422;2023-06-24T09:06:09;99009.50;;;15.39
28803;BMP280;15949;55.656;37.422;2023-06-24T09:11:22;99010.63;;;15.45
28803;BMP280;15949;55.656;37.422;2023-06-24T09:16:29;99016.63;;;15.52
28803;BMP280;15949;55.656;37.422;2023-06-24T09:21:34;99018.50;;;15.52
28803;BMP280;15949;55.656;37.422;2023-06-24T09:26:43;99027.88;;;15.78
28803;BMP280;15949;55.656;37.422;2023-06-24T09:31:51;99026.34;;;15.91
28803;BMP280;15949;55.656;37.422;2023-06-24T09:36:58;99035.38;;;15.72
28803;BMP280;15949;55.656;37.422;2023-06-24T09:42:05;99043.66;;;15.67
28803;BMP280;15949;55.656;37.422;2023-06-24T09:47:13;99053.78;;;15.62
28803;BMP280;15949;55.656;37.422;2023-06-24T09:52:20;99064.28;;;15.65
28803;BMP280;15949;55.656;37.422;2023-06-24T09:57:29;99067.66;;;15.55
28803;BMP280;15949;55.656;37.422;2023-06-24T10:02:37;99057.91;;;15.59
28803;BMP280;15949;55.656;37.422;2023-06-24T10:07:43;99075.16;;;15.57
28803;BMP280;15949;55.656;37.422;2023-06-24T10:12:48;99081.94;;;15.79
28803;BMP280;15949;55.656;37.422;2023-06-24T10:17:54;99083.44;;;15.80
28803;BMP280;15949;55.656;37.422;2023-06-24T10:23:05;99085.31;;;15.86
28803;BMP280;15949;55.656;37.422;2023-06-24T10:28:11;99079.28;;;16.21
28803;BMP280;15949;55.656;37.422;2023-06-24T10:33:17;99084.78;;;16.65
28803;BMP280;15949;55.656;37.422;2023-06-24T10:38:22;99084.66;;;16.97
28803;BMP280;15949;55.656;37.422;2023-06-24T10:43:28;99091.78;;;17.00
28803;BMP280;15949;55.656;37.422;2023-06-24T10:48:37;99103.94;;;16.76
28803;BMP280;15949;55.656;37.422;2023-06-24T10:53:43;99098.28;;;16.78
28803;BMP280;15949;55.656;37.422;2023-06-24T10:58:55;99105.50;;;16.60
28803;BMP280;15949;55.656;37.422;2023-06-24T11:04:05;99106.31;;;16.25
28803;BMP280;15949;55.656;37.422;2023-06-24T11:09:11;99117.22;;;16.23
28803;BMP280;15949;55.656;37.422;2023-06-24T11:14:16;99119.44;;;16.46
28803;BMP280;15949;55.656;37.422;2023-06-24T11:19:22;99114.91;;;16.64
28803;BMP280;15949;55.656;37.422;2023-06-24T11:24:28;99115.66;;;16.47
28803;BMP280;15949;55.656;37.422;2023-06-24T11:29:34;99123.56;;;16.47
28803;BMP280;15949;55.656;37.422;2023-06-24T11:34:39;99117.47;;;16.78
28803;BMP280;15949;55.656;37.422;2023-06-24T11:40:00;99121.63;;;17.45
28803;BMP280;15949;55.656;37.422;2023-06-24T11:45:10;99128.31;;;18.01
28803;BMP280;15949;55.656;37.422;2023-06-24T11:50:16;99136.97;;;18.08
28803;BMP280;15949;55.656;37.422;2023-06-24T11:55:24;99135.22;;;17.91
28803;BMP280;15949;55.656;37.422;2023-06-24T12:00:39;99139.97;;;17.59
28803;BMP280;15949;55.656;37.422;2023-06-24T12:05:47;99136.44;;;17.28
28803;BMP280;15949;55.656;37.422;2023-06-24T12:10:52;99138.34;;;17.24
28803;BMP280;15949;55.656;37.422;2023-06-24T12:15:58;99139.72;;;17.39
28803;BMP280;15949;55.656;37.422;2023-06-24T12:21:04;99145.38;;;17.34
28803;BMP280;15949;55.656;37.422;2023-06-24T12:26:09;99144.53;;;17.55
28803;BMP280;15949;55.656;37.422;2023-06-24T12:31:15;99140.53;;;17.88
28803;BMP280;15949;55.656;37.422;2023-06-24T12:36:21;99146.78;;;18.45
28803;BMP280;15949;55.656;37.422;2023-06-24T12:41:27;99145.97;;;18.48
28803;BMP280;15949;55.656;37.422;2023-06-24T12:46:33;99148.38;;;18.35
28803;BMP280;15949;55.656;37.422;2023-06-24T12:51:38;99153.91;;;18.07
28803;BMP280;15949;55.656;37.422;2023-06-24T12:56:44;99149.91;;;17.89
28803;BMP280;15949;55.656;37.422;2023-06-24T13:01:50;99154.34;;;17.54
28803;BMP280;15949;55.656;37.422;2023-06-24T13:06:55;99166.91;;;17.33
28803;BMP280;15949;55.656;37.422;2023-06-24T13:12:01;99171.09;;;17.16
28803;BMP280;15949;55.656;37.422;2023-06-24T13:17:06;99179.06;;;17.02
28803;BMP280;15949;55.656;37.422;2023-06-24T13:22:12;99177.94;;;16.96
28803;BMP280;15949;55.656;37.422;2023-06-24T13:27:17;99186.97;;;17.02
28803;BMP280;15949;55.656;37.422;2023-06-24T13:32:23;99198.28;;;16.92
28803;BMP280;15949;55.656;37.422;2023-06-24T13:37:29;99192.16;;;17.16
28803;BMP280;15949;55.656;37.422;2023-06-24T13:42:35;99198.97;;;17.83
28803;BMP280;15949;55.656;37.422;2023-06-24T13:47:41;99199.78;;;18.57
28803;BMP280;15949;55.656;37.422;2023-06-24T13:52:46;99202.22;;;18.79
28803;BMP280;15949;55.656;37.422;2023-06-24T13:57:52;99205.56;;;19.13
28803;BMP280;15949;55.656;37.422;2023-06-24T14:02:57;99214.81;;;18.98
28803;BMP280;15949;55.656;37.422;2023-06-24T14:08:03;99209.53;;;18.68
28803;BMP280;15949;55.656;37.422;2023-06-24T14:13:09;99213.19;;;18.40
28803;BMP280;15949;55.656;37.422;2023-06-24T14:18:15;99214.47;;;18.62
28803;BMP280;15949;55.656;37.422;2023-06-24T14:23:20;99213.72;;;18.95
28803;BMP280;15949;55.656;37.422;2023-06-24T14:28:26;99211.66;;;19.10
28803;BMP280;15949;55.656;37.422;2023-06-24T14:33:31;99204.00;;;19.46
28803;BMP280;15949;55.656;37.422;2023-06-24T14:38:37;99199.34;;;19.80
28803;BMP280;15949;55.656;37.422;2023-06-24T14:43:42;99196.63;;;19.60
28803;BMP280;15949;55.656;37.422;2023-06-24T14:48:48;99199.31;;;19.00
28803;BMP280;15949;55.656;37.422;2023-06-24T14:53:54;99204.81;;;18.82
28803;BMP280;15949;55.656;37.422;2023-06-24T14:58:59;99196.69;;;20.46
28803;BMP280;15949;55.656;37.422;2023-06-24T15:04:05;99208.28;;;23.49
28803;BMP280;15949;55.656;37.422;2023-06-24T15:09:10;99202.28;;;23.11
28803;BMP280;15949;55.656;37.422;2023-06-24T15:14:16;99212.13;;;23.82
28803;BMP280;15949;55.656;37.422;2023-06-24T15:19:21;99214.91;;;25.14
28803;BMP280;15949;55.656;37.422;2023-06-24T15:24:27;99209.91;;;24.24
28803;BMP280;15949;55.656;37.422;2023-06-24T15:29:32;99205.81;;;24.10
28803;BMP280;15949;55.656;37.422;2023-06-24T15:34:38;99205.84;;;26.70
28803;BMP280;15949;55.656;37.422;2023-06-24T15:39:43;99211.88;;;28.38
28803;BMP280;15949;55.656;37.422;2023-06-24T15:44:49;99209.19;;;28.38
28803;BMP280;15949;55.656;37.422;2023-06-24T15:49:56;99203.06;;;27.74
28803;BMP280;15949;55.656;37.422;2023-06-24T15:55:01;99190.50;;;26.80
28803;BMP280;15949;55.656;37.422;2023-06-24T16:00:08;99206.97;;;25.77
28803;BMP280;15949;55.656;37.422;2023-06-24T16:05:13;99210.63;;;23.81
28803;BMP280;15949;55.656;37.422;2023-06-24T16:10:19;99223.25;;;22.26
28803;BMP280;15949;55.656;37.422;2023-06-24T16:15:24;99223.13;;;21.40
28803;BMP280;15949;55.656;37.422;2023-06-24T16:20:30;99223.88;;;20.69
28803;BMP280;15949;55.656;37.422;2023-06-24T16:25:36;99217.38;;;19.88
28803;BMP280;15949;55.656;37.422;2023-06-24T16:30:41;99205.81;;;19.22
28803;BMP280;15949;55.656;37.422;2023-06-24T16:35:47;99216.25;;;18.72
28803;BMP280;15949;55.656;37.422;2023-06-24T16:40:52;99222.91;;;18.46
28803;BMP280;15949;55.656;37.422;2023-06-24T16:45:58;99222.31;;;18.32
28803;BMP280;15949;55.656;37.422;2023-06-24T16:51:05;99217.91;;;18.15
28803;BMP280;15949;55.656;37.422;2023-06-24T16:56:11;99218.34;;;18.06
28803;BMP280;15949;55.656;37.422;2023-06-24T17:01:17;99215.03;;;17.99
28803;BMP280;15949;55.656;37.422;2023-06-24T17:06:22;99214.03;;;17.82
28803;BMP280;15949;55.656;37.422;2023-06-24T17:11:28;99228.78;;;17.72
28803;BMP280;15949;55.656;37.422;2023-06-24T17:16:33;99229.56;;;17.66
28803;BMP280;15949;55.656;37.422;2023-06-24T17:21:39;99231.94;;;17.50
28803;BMP280;15949;55.656;37.422;2023-06-24T17:26:44;99238.34;;;17.38
28803;BMP280;15949;55.656;37.422;2023-06-24T17:31:50;99249.31;;;17.26
28803;BMP280;15949;55.656;37.422;2023-06-24T17:36:55;99255.78;;;17.11
28803;BMP280;15949;55.656;37.422;2023-06-24T17:42:01;99255.44;;;17.02
28803;BMP280;15949;55.656;37.422;2023-06-24T17:47:07;99255.06;;;16.96
28803;BMP280;15949;55.656;37.422;2023-06-24T17:52:12;99263.72;;;16.90
28803;BMP280;15949;55.656;37.422;2023-06-24T17:57:19;99266.75;;;16.85
28803;BMP280;15949;55.656;37.422;2023-06-24T18:02:24;99264.50;;;16.83
28803;BMP280;15949;55.656;37.422;2023-06-24T18:07:30;99267.91;;;16.77
28803;BMP280;15949;55.656;37.422;2023-06-24T18:12:35;99270.91;;;16.65
28803;BMP280;15949;55.656;37.422;2023-06-24T18:17:41;99275.41;;;16.61
28803;BMP280;15949;55.656;37.422;2023-06-24T18:22:47;99280.31;;;16.59
28803;BMP280;15949;55.656;37.422;2023-06-24T18:27:52;99294.19;;;16.27
28803;BMP280;15949;55.656;37.422;2023-06-24T18:32:58;99285.53;;;16.09
28803;BMP280;15949;55.656;37.422;2023-06-24T18:38:04;99296.00;;;15.92
28803;BMP280;15949;55.656;37.422;2023-06-24T18:43:09;99289.63;;;15.89
28803;BMP280;15949;55.656;37.422;2023-06-24T18:48:15;99309.53;;;15.94
28803;BMP280;15949;55.656;37.422;2023-06-24T18:53:21;99321.91;;;15.93
28803;BMP280;15949;55.656;37.422;2023-06-24T18:58:27;99317.78;;;15.89
28803;BMP280;15949;55.656;37.422;2023-06-24T19:03:32;99323.00;;;15.82
28803;BMP280;15949;55.656;37.422;2023-06-24T19:08:38;99325.94;;;15.63
28803;BMP280;15949;55.656;37.422;2023-06-24T19:13:43;99321.34;;;15.45
28803;BMP280;15949;55.656;37.422;2023-06-24T19:18:49;99331.44;;;15.40
28803;BMP280;15949;55.656;37.422;2023-06-24T19:23:56;99342.97;;;15.25
28803;BMP280;15949;55.656;37.422;2023-06-24T19:29:01;99345.09;;;15.09
28803;BMP280;15949;55.656;37.422;2023-06-24T19:34:07;99347.16;;;14.86
28803;BMP280;15949;55.656;37.422;2023-06-24T19:39:14;99341.06;;;14.74
28803;BMP280;15949;55.656;37.422;2023-06-24T19:44:19;99342.00;;;14.52
28803;BMP280;15949;55.656;37.422;2023-06-24T19:49:25;99342.88;;;14.30
28803;BMP280;15949;55.656;37.422;2023-06-24T19:54:30;99333.28;;;14.08
28803;BMP280;15949;55.656;37.422;2023-06-24T19:59:36;99336.13;;;13.96
28803;BMP280;15949;55.656;37.422;2023-06-24T20:04:41;99328.81;;;13.79
28803;BMP280;15949;55.656;37.422;2023-06-24T20:09:47;99338.03;;;13.69
28803;BMP280;15949;55.656;37.422;2023-06-24T20:14:52;99321.47;;;13.62
28803;BMP280;15949;55.656;37.422;2023-06-24T20:19:58;99326.13;;;13.49
28803;BMP280;15949;55.656;37.422;2023-06-24T20:25:04;99326.75;;;13.39
28803;BMP280;15949;55.656;37.422;2023-06-24T20:30:10;99334.84;;;13.30
28803;BMP280;15949;55.656;37.422;2023-06-24T20:35:16;99340.72;;;13.20
28803;BMP280;15949;55.656;37.422;2023-06-24T20:40:22;99349.50;;;13.12
28803;BMP280;15949;55.656;37.422;2023-06-24T20:45:27;99346.38;;;13.03
28803;BMP280;15949;55.656;37.422;2023-06-24T20:50:33;99353.44;;;12.99
28803;BMP280;15949;55.656;37.422;2023-06-24T20:55:38;99355.13;;;12.88
28803;BMP280;15949;55.656;37.422;2023-06-24T21:00:44;99357.16;;;12.75
28803;BMP280;15949;55.656;37.422;2023-06-24T21:05:50;99357.72;;;12.65
28803;BMP280;15949;55.656;37.422;2023-06-24T21:10:58;99353.00;;;12.55
28803;BMP280;15949;55.656;37.422;2023-06-24T21:16:04;99351.72;;;12.46
28803;BMP280;15949;55.656;37.422;2023-06-24T21:21:09;99366.19;;;12.40
28803;BMP280;15949;55.656;37.422;2023-06-24T21:26:15;99364.50;;;12.32
28803;BMP280;15949;55.656;37.422;2023-06-24T21:31:21;99370.44;;;12.29
28803;BMP280;15949;55.656;37.422;2023-06-24T21:36:26;99363.22;;;12.22
28803;BMP280;15949;55.656;37.422;2023-06-24T21:41:32;99364.97;;;12.18
28803;BMP280;15949;55.656;37.422;2023-06-24T21:46:37;99361.63;;;12.18
28803;BMP280;15949;55.656;37.422;2023-06-24T21:51:43;99366.38;;;12.12
28803;BMP280;15949;55.656;37.422;2023-06-24T21:56:48;99360.31;;;12.08
28803;BMP280;15949;55.656;37.422;2023-06-24T22:01:54;99362.81;;;12.04
28803;BMP280;15949;55.656;37.422;2023-06-24T22:06:59;99359.66;;;11.95
28803;BMP280;15949;55.656;37.422;2023-06-24T22:12:06;99365.06;;;11.87
28803;BMP280;15949;55.656;37.422;2023-06-24T22:17:11;99369.38;;;11.79
28803;BMP280;15949;55.656;37.422;2023-06-24T22:22:18;99371.09;;;11.72
28803;BMP280;15949;55.656;37.422;2023-06-24T22:27:23;99374.72;;;11.67
28803;BMP280;15949;55.656;37.422;2023-06-24T22:32:29;99380.88;;;11.59
28803;BMP280;15949;55.656;37.422;2023-06-24T22:37:35;99394.19;;;11.54
28803;BMP280;15949;55.656;37.422;2023-06-24T22:42:43;99395.44;;;11.44
28803;BMP280;15949;55.656;37.422;2023-06-24T22:47:49;99398.69;;;11.41
28803;BMP280;15949;55.656;37.422;2023-06-24T22:52:55;99405.28;;;11.35
28803;BMP280;15949;55.656;37.422;2023-06-24T22:58:01;99403.59;;;11.27
28803;BMP280;15949;55.656;37.422;2023-06-24T23:03:07;99420.25;;;11.23
28803;BMP280;15949;55.656;37.422;2023-06-24T23:08:13;99429.41;;;11.17
28803;BMP280;15949;55.656;37.422;2023-06-24T23:13:19;99435.31;;;11.14
28803;BMP280;15949;55.656;37.422;2023-06-24T23:18:25;99444.53;;;11.11
28803;BMP280;15949;55.656;37.422;2023-06-24T23:23:31;99443.78;;;11.11
28803;BMP280;15949;55.656;37.422;2023-06-24T23:28:44;99438.53;;;11.11
28803;BMP280;15949;55.656;37.422;2023-06-24T23:33:53;99446.81;;;11.13
28803;BMP280;15949;55.656;37.422;2023-06-24T23:39:00;99445.28;;;11.12
28803;BMP280;15949;55.656;37.422;2023-06-24T23:44:06;99445.53;;;11.07
28803;BMP280;15949;55.656;37.422;2023-06-24T23:49:12;99454.03;;;11.04
28803;BMP280;15949;55.656;37.422;2023-06-24T23:54:18;99453.94;;;11.00
28803;BMP280;15949;55.656;37.422;2023-06-24T23:59:23;99444.06;;;10.94
